createdAt,value
2023-02-03T00:00:57.904Z,59.56
2023-02-03T00:04:00.322Z,57.44
2023-02-03T00:07:02.801Z,56.94
2023-02-03T00:10:07.054Z,57.26
2023-02-03T00:13:09.531Z,57.70
2023-02-03T00:16:11.908Z,56.82
2023-02-03T00:19:15.948Z,57.29
2023-02-03T00:22:19.750Z,57.62
2023-02-03T00:25:22.093Z,57.30
2023-02-03T00:28:28.254Z,58.27
2023-02-03T00:31:30.920Z,58.47
2023-02-03T00:34:34.549Z,58.23
2023-02-03T00:37:36.870Z,58.14
2023-02-03T00:40:39.613Z,58.73
2023-02-03T00:43:42.117Z,59.55
2023-02-03T00:46:44.526Z,59.56
2023-02-03T00:49:47.697Z,59.48
2023-02-03T00:52:50.105Z,59.23
2023-02-03T00:55:52.551Z,59.81
2023-02-03T00:58:55.033Z,60.27
2023-02-03T01:01:57.522Z,60.08
2023-02-03T01:05:00.450Z,60.51
2023-02-03T01:08:03.339Z,60.03
2023-02-03T01:11:07.751Z,60.89
2023-02-03T01:14:10.507Z,61.63
2023-02-03T01:17:12.876Z,62.04
2023-02-03T01:20:16.951Z,62.75
2023-02-03T01:23:19.360Z,62.79
2023-02-03T01:26:23.481Z,63.65
2023-02-03T01:29:26.433Z,62.88
2023-02-03T01:32:28.885Z,62.65
2023-02-03T01:35:35.057Z,62.92
2023-02-03T01:38:38.953Z,63.06
2023-02-03T01:41:41.720Z,62.52
2023-02-03T01:44:45.580Z,64.21
2023-02-03T01:47:58.678Z,63.17
2023-02-03T01:51:02.900Z,62.42
2023-02-03T01:54:07.354Z,63.29
2023-02-03T01:57:43.236Z,63.61
2023-02-03T02:00:47.212Z,64.44
2023-02-03T02:03:54.369Z,64.32
2023-02-03T02:06:58.264Z,64.51
2023-02-03T02:10:01.334Z,65.14
2023-02-03T02:13:05.430Z,65.49
2023-02-03T02:16:18.028Z,66.46
2023-02-03T02:20:20.773Z,67.74
2023-02-03T02:23:48.810Z,68.24
2023-02-03T02:27:00.689Z,68.87
2023-02-03T02:30:27.653Z,69.22
2023-02-03T02:33:42.898Z,69.22
2023-02-03T02:36:54.334Z,67.58
2023-02-03T02:40:01.865Z,66.61
2023-02-03T02:43:08.586Z,66.42
2023-02-03T02:46:16.213Z,66.30
2023-02-03T02:49:18.696Z,66.92
2023-02-03T02:52:24.410Z,67.38
2023-02-03T02:55:32.443Z,67.69
2023-02-03T02:58:41.071Z,69.31
2023-02-03T03:01:43.540Z,70.89
2023-02-03T03:04:49.863Z,71.51
2023-02-03T03:08:02.723Z,71.28
2023-02-03T03:11:05.743Z,73.04
2023-02-03T03:14:09.968Z,74.11
2023-02-03T03:17:19.354Z,74.56
2023-02-03T03:20:26.012Z,75.13
2023-02-03T03:23:32.165Z,75.32
2023-02-03T03:26:54.546Z,74.44
2023-02-03T03:30:02.201Z,74.21
2023-02-03T03:33:07.572Z,73.49
2023-02-03T03:36:19.232Z,73.44
2023-02-03T03:39:50.746Z,71.87
2023-02-03T03:42:58.930Z,71.78
2023-02-03T03:46:12.479Z,72.02
2023-02-03T03:49:18.463Z,72.34
2023-02-03T03:52:26.679Z,72.83
2023-02-03T03:55:34.142Z,72.63
2023-02-03T03:58:40.255Z,71.89
2023-02-03T04:01:43.116Z,71.50
2023-02-03T04:04:47.711Z,71.75
2023-02-03T04:07:50.093Z,71.44
2023-02-03T04:10:52.549Z,71.58
2023-02-03T04:13:54.945Z,71.55
2023-02-03T04:16:58.714Z,71.20
2023-02-03T04:20:01.145Z,71.25
2023-02-03T04:23:03.523Z,71.32
2023-02-03T04:26:05.932Z,71.62
2023-02-03T04:29:08.415Z,71.93
2023-02-03T04:32:10.904Z,71.92
2023-02-03T04:35:13.805Z,71.88
2023-02-03T04:38:16.139Z,71.71
2023-02-03T04:41:18.690Z,70.97
2023-02-03T04:44:21.129Z,70.73
2023-02-03T04:47:23.565Z,70.64
2023-02-03T04:50:26.177Z,71.24
2023-02-03T04:53:29.145Z,72.84
2023-02-03T04:56:31.452Z,73.03
2023-02-03T04:59:34.064Z,73.19
2023-02-03T05:02:36.431Z,72.67
2023-02-03T05:05:38.909Z,73.47
2023-02-03T05:08:41.268Z,73.71
2023-02-03T05:11:43.677Z,73.12
2023-02-03T05:14:46.062Z,73.42
2023-02-03T05:17:48.432Z,72.34
2023-02-03T05:20:50.839Z,72.46
2023-02-03T05:23:53.284Z,73.23
2023-02-03T05:26:55.667Z,73.84
2023-02-03T05:29:58.075Z,74.75
2023-02-03T05:33:00.512Z,75.68
2023-02-03T05:36:02.976Z,76.04
2023-02-03T05:39:05.372Z,75.17
2023-02-03T05:42:07.932Z,73.78
2023-02-03T05:45:10.489Z,74.19
2023-02-03T05:48:12.903Z,73.41
2023-02-03T05:51:15.277Z,72.07
2023-02-03T05:54:17.636Z,72.13
2023-02-03T05:57:19.961Z,71.91
2023-02-03T06:00:24.881Z,71.74
2023-02-03T06:03:27.456Z,71.63
2023-02-03T06:06:33.949Z,70.96
2023-02-03T06:09:36.379Z,70.29
2023-02-03T06:12:39.145Z,70.68
2023-02-03T06:15:42.152Z,70.24
2023-02-03T06:18:44.508Z,70.61
2023-02-03T06:21:46.912Z,70.16
2023-02-03T06:24:49.819Z,68.77
2023-02-03T06:27:52.269Z,68.08
2023-02-03T06:30:54.695Z,68.95
2023-02-03T06:33:57.411Z,67.58
2023-02-03T06:36:59.861Z,67.09
2023-02-03T06:40:02.964Z,67.10
2023-02-03T06:43:05.592Z,66.76
2023-02-03T06:46:08.024Z,66.24
2023-02-03T06:49:10.784Z,66.98
2023-02-03T06:52:13.325Z,66.40
2023-02-03T06:55:15.927Z,66.40
2023-02-03T06:58:18.296Z,66.34
2023-02-03T07:01:20.895Z,66.82
2023-02-03T07:04:23.816Z,65.48
2023-02-03T07:07:26.284Z,64.04
2023-02-03T07:10:28.933Z,64.04
2023-02-03T07:13:31.472Z,64.52
2023-02-03T07:16:34.348Z,63.64
2023-02-03T07:19:36.721Z,64.00
2023-02-03T07:22:42.030Z,63.88
2023-02-03T07:25:44.879Z,62.66
2023-02-03T07:28:47.403Z,62.35
2023-02-03T07:31:49.930Z,58.85
2023-02-03T07:34:52.445Z,58.63
2023-02-03T07:37:54.807Z,58.04
2023-02-03T07:40:57.475Z,59.37
2023-02-03T07:43:59.841Z,58.32
2023-02-03T07:47:02.629Z,58.90
2023-02-03T07:50:05.265Z,56.80
2023-02-03T07:53:11.173Z,57.01
2023-02-03T07:56:13.988Z,56.66
2023-02-03T07:59:17.421Z,57.30
2023-02-03T08:02:19.803Z,59.22
2023-02-03T08:05:22.350Z,61.37
2023-02-03T08:08:24.941Z,60.08
2023-02-03T08:11:27.465Z,60.35
2023-02-03T08:14:31.273Z,58.90
2023-02-03T08:17:33.817Z,58.10
2023-02-03T08:20:36.179Z,59.45
2023-02-03T08:23:38.812Z,59.38
2023-02-03T08:26:41.174Z,60.48
2023-02-03T08:29:44.557Z,61.72
2023-02-03T08:32:46.906Z,60.84
2023-02-03T08:35:50.429Z,60.57
2023-02-03T08:38:52.926Z,56.98
2023-02-03T08:41:55.249Z,55.50
2023-02-03T08:44:58.176Z,56.29
2023-02-03T08:48:00.687Z,54.70
2023-02-03T08:51:09.290Z,53.14
2023-02-03T08:54:12.089Z,53.47
2023-02-03T08:57:14.926Z,52.19
2023-02-03T09:00:17.658Z,53.10
2023-02-03T09:03:20.188Z,52.53
2023-02-03T09:06:24.656Z,51.69
2023-02-03T09:09:29.116Z,53.00
2023-02-03T09:12:31.584Z,53.70
2023-02-03T09:15:34.113Z,52.14
2023-02-03T09:18:36.453Z,56.01
2023-02-03T09:21:44.997Z,57.36
2023-02-03T09:24:51.340Z,55.75
2023-02-03T09:27:53.814Z,56.64
2023-02-03T09:31:03.482Z,56.88
2023-02-03T09:34:06.199Z,55.70
2023-02-03T09:37:09.003Z,57.05
2023-02-03T09:40:24.591Z,56.13
2023-02-03T09:43:47.632Z,54.01
2023-02-03T09:47:00.829Z,55.96
2023-02-03T09:50:07.647Z,55.39
2023-02-03T09:53:28.535Z,53.99
2023-02-03T09:56:34.511Z,54.63
2023-02-03T09:59:36.887Z,55.80
2023-02-03T10:02:50.655Z,55.05
2023-02-03T10:05:58.036Z,53.99
2023-02-03T10:09:21.617Z,54.25
2023-02-03T10:12:38.378Z,55.99
2023-02-03T10:15:52.919Z,55.81
2023-02-03T10:19:01.591Z,56.87
2023-02-03T10:22:08.253Z,56.88
2023-02-03T10:25:20.844Z,57.20
2023-02-03T10:28:29.949Z,57.24
2023-02-03T10:31:36.590Z,55.44
2023-02-03T10:34:39.867Z,56.82
2023-02-03T10:37:46.962Z,57.08
2023-02-03T10:40:49.430Z,56.26
2023-02-03T10:43:53.224Z,57.37
2023-02-03T10:46:55.586Z,56.77
2023-02-03T10:49:58.815Z,55.93
2023-02-03T10:53:35.897Z,57.88
2023-02-03T10:56:40.149Z,59.79
2023-02-03T10:59:45.242Z,58.48
2023-02-03T11:02:55.588Z,58.64
2023-02-03T11:06:06.816Z,61.77
2023-02-03T11:09:28.924Z,60.98
2023-02-03T11:12:31.426Z,60.79
2023-02-03T11:15:33.901Z,61.07
2023-02-03T11:18:44.015Z,60.85
2023-02-03T11:21:49.409Z,56.75
2023-02-03T11:24:52.124Z,57.01
2023-02-03T11:27:56.075Z,55.14
2023-02-03T11:30:59.072Z,55.85
2023-02-03T11:34:15.114Z,55.28
2023-02-03T11:37:27.091Z,55.61
2023-02-03T11:40:34.380Z,54.98
2023-02-03T11:43:36.901Z,55.22
2023-02-03T11:46:40.518Z,56.14
2023-02-03T11:50:07.726Z,57.33
2023-02-03T11:53:24.045Z,58.41
2023-02-03T11:56:45.339Z,58.39
2023-02-03T11:59:53.595Z,58.15
2023-02-03T12:03:14.635Z,57.86
2023-02-03T12:06:55.762Z,59.12
2023-02-03T12:10:07.813Z,59.65
2023-02-03T12:13:32.093Z,59.07
2023-02-03T12:17:06.460Z,58.48
2023-02-03T12:20:42.643Z,57.88
2023-02-03T12:24:25.410Z,58.66
2023-02-03T12:27:44.941Z,58.72
2023-02-03T12:30:57.524Z,58.13
2023-02-03T12:34:13.637Z,57.71
2023-02-03T12:37:43.606Z,56.69
2023-02-03T12:40:59.796Z,57.18
2023-02-03T12:44:11.183Z,59.04
2023-02-03T12:47:50.766Z,59.80
2023-02-03T12:51:03.501Z,62.16
2023-02-03T12:54:45.443Z,63.28
2023-02-03T12:58:00.142Z,63.08
2023-02-03T13:01:20.034Z,64.48
2023-02-03T13:04:41.392Z,64.48
2023-02-03T13:07:51.107Z,63.67
2023-02-03T13:11:05.561Z,64.03
2023-02-03T13:14:20.653Z,63.49
2023-02-03T13:17:46.707Z,63.59
2023-02-03T13:20:49.204Z,63.44
2023-02-03T13:23:51.885Z,64.39
2023-02-03T13:27:14.197Z,61.96
2023-02-03T13:30:44.059Z,61.59
2023-02-03T13:33:49.150Z,61.78
2023-02-03T13:37:13.010Z,59.87
2023-02-03T13:40:40.840Z,61.63
2023-02-03T13:43:51.355Z,60.93
2023-02-03T13:46:56.119Z,61.90
2023-02-03T13:50:04.106Z,62.69
2023-02-03T13:53:16.537Z,63.38
2023-02-03T13:56:24.306Z,64.52
2023-02-03T13:59:37.385Z,66.55
2023-02-03T14:02:53.129Z,69.16
2023-02-03T14:05:57.437Z,72.00
2023-02-03T14:09:00.249Z,73.16
2023-02-03T14:12:22.364Z,74.87
2023-02-03T14:15:33.539Z,75.65
2023-02-03T14:18:45.168Z,74.88
2023-02-03T14:22:17.404Z,75.44
2023-02-03T14:25:21.335Z,76.14
2023-02-03T14:28:31.166Z,77.12
2023-02-03T14:31:53.185Z,77.25
2023-02-03T14:34:55.652Z,77.58
2023-02-03T14:38:02.298Z,78.44
2023-02-03T14:41:06.087Z,79.62
2023-02-03T14:44:53.289Z,80.99
2023-02-03T14:48:32.525Z,82.70
2023-02-03T14:51:46.847Z,83.79
2023-02-03T14:54:55.726Z,84.83
2023-02-03T14:58:06.420Z,85.51
2023-02-03T15:01:37.970Z,85.83
2023-02-03T15:04:41.496Z,86.22
2023-02-03T15:07:47.584Z,85.35
2023-02-03T15:10:49.939Z,85.74
2023-02-03T15:13:52.861Z,86.82
2023-02-03T15:17:31.324Z,86.66
2023-02-03T15:20:44.055Z,87.05
2023-02-03T15:23:49.351Z,86.83
2023-02-03T15:26:54.974Z,86.78
2023-02-03T15:29:59.208Z,87.59
2023-02-03T15:33:07.587Z,88.11
2023-02-03T15:36:18.311Z,87.88
2023-02-03T15:39:29.957Z,88.27
2023-02-03T15:42:58.002Z,88.47
2023-02-03T15:46:07.476Z,89.10
2023-02-03T15:49:30.210Z,89.29
2023-02-03T15:52:40.000Z,88.93
2023-02-03T15:55:46.973Z,89.20
2023-02-03T15:58:50.498Z,88.96
2023-02-03T16:01:53.942Z,89.50
2023-02-03T16:04:56.715Z,89.72
2023-02-03T16:08:36.779Z,89.46
2023-02-03T16:11:39.898Z,88.73
2023-02-03T16:14:43.277Z,89.52
2023-02-03T16:17:45.673Z,89.35
2023-02-03T16:20:50.961Z,89.52
2023-02-03T16:23:53.661Z,89.70
2023-02-03T16:26:56.091Z,90.19
2023-02-03T16:30:22.840Z,90.42
2023-02-03T16:33:43.498Z,90.15
2023-02-03T16:37:04.790Z,90.31
2023-02-03T16:40:26.176Z,90.43
2023-02-03T16:43:46.853Z,90.92
2023-02-03T16:47:08.244Z,90.49
2023-02-03T16:50:58.184Z,90.06
2023-02-03T16:54:01.492Z,90.41
2023-02-03T16:57:03.957Z,90.00
2023-02-03T17:00:08.692Z,90.29
2023-02-03T17:03:14.685Z,90.84
2023-02-03T17:06:17.137Z,91.05
2023-02-03T17:09:22.192Z,91.10
2023-02-03T17:12:25.687Z,91.20
2023-02-03T17:15:28.360Z,91.12
2023-02-03T17:18:31.380Z,91.26
2023-02-03T17:21:34.032Z,91.61
2023-02-03T17:24:36.389Z,91.67
2023-02-03T17:27:38.897Z,91.58
2023-02-03T17:30:41.738Z,91.36
2023-02-03T17:33:44.912Z,91.88
2023-02-03T17:36:47.327Z,91.73
2023-02-03T17:56:20.742Z,91.25
2023-02-03T17:59:23.508Z,90.84
2023-02-03T18:02:25.966Z,91.22
2023-02-03T18:05:29.040Z,90.85
2023-02-03T18:08:31.445Z,90.53
2023-02-03T18:11:36.145Z,90.27
2023-02-03T18:14:38.567Z,89.84
2023-02-03T18:17:40.944Z,89.77
2023-02-03T18:20:43.379Z,89.70
2023-02-03T18:23:46.549Z,89.32
2023-02-03T18:26:51.485Z,89.31
2023-02-03T18:29:54.158Z,89.31
2023-02-03T18:32:57.575Z,88.86
2023-02-03T18:36:01.759Z,89.22
2023-02-03T18:39:05.126Z,89.42
2023-02-03T18:42:07.931Z,89.18
2023-02-03T18:45:11.719Z,89.39
2023-02-03T18:48:14.378Z,88.90
2023-02-03T18:51:18.922Z,88.96
2023-02-03T18:54:21.526Z,88.35
2023-02-03T18:57:25.218Z,87.75
2023-02-03T19:00:28.012Z,86.87
2023-02-03T19:03:30.596Z,87.34
2023-02-03T19:06:34.745Z,87.78
2023-02-03T19:09:38.174Z,87.99
2023-02-03T19:12:40.993Z,87.47
2023-02-03T19:15:43.821Z,88.37
2023-02-03T19:18:47.562Z,87.74
2023-02-03T19:21:51.716Z,87.96
2023-02-03T19:24:55.839Z,89.38
2023-02-03T19:27:58.603Z,88.28
2023-02-03T19:31:13.199Z,88.76
2023-02-03T19:34:17.077Z,88.54
2023-02-03T19:37:19.776Z,87.00
2023-02-03T19:40:22.498Z,87.38
2023-02-03T19:43:25.288Z,87.55
2023-02-03T19:46:34.161Z,88.32
2023-02-03T19:49:36.796Z,87.88
2023-02-03T19:52:39.564Z,87.59
2023-02-03T19:55:46.307Z,87.45
2023-02-03T19:58:52.023Z,86.81
2023-02-03T20:01:56.586Z,86.77
2023-02-03T20:05:00.846Z,87.86
2023-02-03T20:08:04.894Z,88.03
2023-02-03T20:11:07.583Z,88.26
2023-02-03T20:14:11.261Z,87.78
2023-02-03T20:17:13.981Z,87.20
2023-02-03T20:20:19.203Z,87.24
2023-02-03T20:23:24.319Z,87.88
2023-02-03T20:26:26.919Z,87.88
2023-02-03T20:29:29.423Z,87.16
2023-02-03T20:32:32.219Z,87.23
2023-02-03T20:35:34.704Z,88.14
2023-02-03T20:38:37.893Z,87.64
2023-02-03T20:41:47.036Z,88.14
2023-02-03T20:44:50.277Z,88.21
2023-02-03T20:47:52.982Z,87.72
2023-02-03T20:50:55.795Z,87.65
2023-02-03T20:53:58.656Z,87.89
2023-02-03T20:57:02.243Z,87.90
2023-02-03T21:00:19.798Z,87.77
2023-02-03T21:03:41.807Z,88.16
2023-02-03T21:06:44.465Z,87.92
2023-02-03T21:09:47.147Z,87.84
2023-02-03T21:12:49.714Z,87.27
2023-02-03T21:15:55.032Z,87.63
2023-02-03T21:19:02.647Z,87.43
2023-02-03T21:22:18.049Z,87.13
2023-02-03T21:25:30.100Z,86.96
2023-02-03T21:28:32.766Z,86.84
2023-02-03T21:31:37.491Z,86.61
2023-02-03T21:34:43.011Z,87.80
2023-02-03T21:37:45.378Z,87.59
2023-02-03T21:40:47.906Z,87.56
2023-02-03T21:43:53.361Z,87.61
2023-02-03T21:46:56.336Z,87.74
2023-02-03T21:50:00.913Z,87.81
2023-02-03T21:53:10.054Z,87.36
2023-02-03T21:56:24.689Z,87.63
2023-02-03T21:59:36.851Z,88.47
2023-02-03T22:03:01.806Z,88.03
2023-02-03T22:06:18.661Z,87.86
2023-02-03T22:09:24.165Z,87.49
2023-02-03T22:12:26.538Z,87.75
2023-02-03T22:15:28.971Z,87.80
2023-02-03T22:18:31.794Z,87.43
2023-02-03T22:21:34.573Z,87.52
2023-02-03T22:24:36.982Z,87.65
2023-02-03T22:27:39.394Z,87.80
2023-02-03T22:30:41.994Z,88.55
2023-02-03T22:33:44.515Z,88.43
2023-02-03T22:36:46.888Z,88.99
2023-02-03T22:39:49.284Z,88.72
2023-02-03T22:42:52.245Z,88.53
2023-02-03T22:45:55.070Z,87.77
2023-02-03T22:48:57.638Z,88.08
2023-02-03T22:52:00.111Z,88.60
2023-02-03T22:55:03.162Z,88.31
2023-02-03T22:58:07.054Z,88.84
2023-02-03T23:01:09.490Z,88.66
2023-02-03T23:04:12.142Z,88.53
2023-02-03T23:07:14.430Z,89.00
2023-02-03T23:10:20.507Z,89.66
2023-02-03T23:13:23.309Z,89.54
2023-02-03T23:16:25.704Z,89.82
2023-02-03T23:19:28.612Z,89.59
2023-02-03T23:22:31.069Z,89.37
2023-02-03T23:25:33.463Z,89.09
2023-02-03T23:28:35.881Z,88.76
2023-02-03T23:31:38.347Z,89.46
2023-02-03T23:35:15.769Z,90.39
2023-02-03T23:38:18.873Z,90.10
2023-02-03T23:41:21.233Z,89.84
2023-02-03T23:44:23.851Z,89.51
2023-02-03T23:47:26.266Z,88.92
2023-02-03T23:50:28.952Z,88.90
2023-02-03T23:53:31.772Z,88.53
2023-02-03T23:56:34.078Z,88.49
2023-02-03T23:59:37.549Z,88.24
